sensor_id;sensor_type;location;lat;lon;timestamp;pressure;altitude;pressure_sealevel;temperature
31528;BMP280;10206;48.012;10.030;2023-12-20T00:01:40;94796.69;;;7.35
31528;BMP280;10206;48.012;10.030;2023-12-20T00:04:06;94796.69;;;7.35
31528;BMP280;10206;48.012;10.030;2023-12-20T00:06:32;94793.09;;;7.32
31528;BMP280;10206;48.012;10.030;2023-12-20T00:08:58;94797.38;;;7.20
31528;BMP280;10206;48.012;10.030;2023-12-20T00:11:25;94796.47;;;7.18
31528;BMP280;10206;48.012;10.030;2023-12-20T00:13:51;94800.28;;;7.22
31528;BMP280;10206;48.012;10.030;2023-12-20T00:16:17;94809.69;;;7.21
31528;BMP280;10206;48.012;10.030;2023-12-20T00:18:43;94803.06;;;6.79
31528;BMP280;10206;48.012;10.030;2023-12-20T00:21:10;94801.16;;;7.02
31528;BMP280;10206;48.012;10.030;2023-12-20T00:23:36;94799.00;;;7.08
31528;BMP280;10206;48.012;10.030;2023-12-20T00:26:02;94796.44;;;6.87
31528;BMP280;10206;48.012;10.030;2023-12-20T00:28:28;94804.34;;;6.85
31528;BMP280;10206;48.012;10.030;2023-12-20T00:30:54;94804.34;;;6.85
31528;BMP280;10206;48.012;10.030;2023-12-20T00:33:20;94797.13;;;6.88
31528;BMP280;10206;48.012;10.030;2023-12-20T00:35:46;94787.75;;;6.89
31528;BMP280;10206;48.012;10.030;2023-12-20T00:38:12;94787.75;;;6.89
31528;BMP280;10206;48.012;10.030;2023-12-20T00:40:38;94770.06;;;7.11
31528;BMP280;10206;48.012;10.030;2023-12-20T00:43:04;94765.91;;;7.02
31528;BMP280;10206;48.012;10.030;2023-12-20T00:45:30;94765.72;;;7.00
31528;BMP280;10206;48.012;10.030;2023-12-20T00:47:56;94748.00;;;6.99
31528;BMP280;10206;48.012;10.030;2023-12-20T00:50:23;94748.00;;;6.99
31528;BMP280;10206;48.012;10.030;2023-12-20T00:52:49;94726.31;;;6.99
31528;BMP280;10206;48.012;10.030;2023-12-20T00:55:15;94722.13;;;6.98
31528;BMP280;10206;48.012;10.030;2023-12-20T00:57:41;94722.28;;;6.85
31528;BMP280;10206;48.012;10.030;2023-12-20T01:00:07;94726.03;;;6.67
31528;BMP280;10206;48.012;10.030;2023-12-20T01:02:35;94721.34;;;6.60
31528;BMP280;10206;48.012;10.030;2023-12-20T01:05:02;94727.31;;;6.66
31528;BMP280;10206;48.012;10.030;2023-12-20T01:07:28;94731.31;;;6.65
31528;BMP280;10206;48.012;10.030;2023-12-20T01:09:54;94729.66;;;6.62
31528;BMP280;10206;48.012;10.030;2023-12-20T01:12:20;94736.16;;;6.66
31528;BMP280;10206;48.012;10.030;2023-12-20T01:14:46;94740.56;;;6.92
31528;BMP280;10206;48.012;10.030;2023-12-20T01:17:13;94733.78;;;6.55
31528;BMP280;10206;48.012;10.030;2023-12-20T01:19:39;94727.69;;;6.70
31528;BMP280;10206;48.012;10.030;2023-12-20T01:22:05;94727.69;;;6.70
31528;BMP280;10206;48.012;10.030;2023-12-20T01:24:31;94710.97;;;6.43
31528;BMP280;10206;48.012;10.030;2023-12-20T01:26:57;94697.69;;;6.68
31528;BMP280;10206;48.012;10.030;2023-12-20T01:29:23;94689.88;;;6.57
31528;BMP280;10206;48.012;10.030;2023-12-20T01:31:49;94689.88;;;6.57
31528;BMP280;10206;48.012;10.030;2023-12-20T01:34:16;94693.31;;;6.57
31528;BMP280;10206;48.012;10.030;2023-12-20T01:36:42;94698.53;;;6.48
31528;BMP280;10206;48.012;10.030;2023-12-20T01:39:08;94698.53;;;6.48
31528;BMP280;10206;48.012;10.030;2023-12-20T01:41:34;94705.22;;;6.54
31528;BMP280;10206;48.012;10.030;2023-12-20T01:44:00;94702.72;;;6.49
31528;BMP280;10206;48.012;10.030;2023-12-20T01:46:27;94705.41;;;6.49
31528;BMP280;10206;48.012;10.030;2023-12-20T01:48:53;94705.81;;;6.60
31528;BMP280;10206;48.012;10.030;2023-12-20T01:51:20;94693.38;;;6.65
31528;BMP280;10206;48.012;10.030;2023-12-20T01:53:47;94693.38;;;6.65
31528;BMP280;10206;48.012;10.030;2023-12-20T01:56:14;94700.91;;;6.59
31528;BMP280;10206;48.012;10.030;2023-12-20T01:58:46;94700.91;;;6.59
31528;BMP280;10206;48.012;10.030;2023-12-20T02:01:13;94700.91;;;6.59
31528;BMP280;10206;48.012;10.030;2023-12-20T02:03:42;94694.59;;;6.49
31528;BMP280;10206;48.012;10.030;2023-12-20T02:06:09;94690.63;;;6.57
31528;BMP280;10206;48.012;10.030;2023-12-20T02:08:36;94690.84;;;6.82
31528;BMP280;10206;48.012;10.030;2023-12-20T02:11:02;94688.66;;;6.65
31528;BMP280;10206;48.012;10.030;2023-12-20T02:13:28;94696.22;;;6.67
31528;BMP280;10206;48.012;10.030;2023-12-20T02:15:57;94694.66;;;6.79
31528;BMP280;10206;48.012;10.030;2023-12-20T02:18:24;94694.66;;;6.79
31528;BMP280;10206;48.012;10.030;2023-12-20T02:20:50;94699.56;;;7.03
31528;BMP280;10206;48.012;10.030;2023-12-20T02:23:16;94708.97;;;7.02
31528;BMP280;10206;48.012;10.030;2023-12-20T02:25:42;94706.59;;;6.99
31528;BMP280;10206;48.012;10.030;2023-12-20T02:28:08;94705.38;;;7.22
31528;BMP280;10206;48.012;10.030;2023-12-20T02:30:35;94707.69;;;7.11
31528;BMP280;10206;48.012;10.030;2023-12-20T02:33:01;94704.25;;;7.18
31528;BMP280;10206;48.012;10.030;2023-12-20T02:35:29;94703.88;;;6.99
31528;BMP280;10206;48.012;10.030;2023-12-20T02:37:55;94703.88;;;6.99
31528;BMP280;10206;48.012;10.030;2023-12-20T02:40:21;94703.00;;;7.04
31528;BMP280;10206;48.012;10.030;2023-12-20T02:42:47;94705.69;;;6.96
31528;BMP280;10206;48.012;10.030;2023-12-20T02:45:13;94704.81;;;7.09
31528;BMP280;10206;48.012;10.030;2023-12-20T02:47:39;94706.78;;;6.78
31528;BMP280;10206;48.012;10.030;2023-12-20T02:50:06;94698.44;;;6.83
31528;BMP280;10206;48.012;10.030;2023-12-20T02:52:32;94695.19;;;6.77
31528;BMP280;10206;48.012;10.030;2023-12-20T02:54:58;94699.53;;;6.88
31528;BMP280;10206;48.012;10.030;2023-12-20T02:57:24;94693.59;;;6.89
31528;BMP280;10206;48.012;10.030;2023-12-20T02:59:50;94693.59;;;6.89
31528;BMP280;10206;48.012;10.030;2023-12-20T03:02:16;94696.63;;;6.86
31528;BMP280;10206;48.012;10.030;2023-12-20T03:04:42;94691.75;;;6.84
31528;BMP280;10206;48.012;10.030;2023-12-20T03:07:08;94684.72;;;6.89
31528;BMP280;10206;48.012;10.030;2023-12-20T03:09:34;94694.47;;;6.84
31528;BMP280;10206;48.012;10.030;2023-12-20T03:12:00;94695.56;;;6.89
31528;BMP280;10206;48.012;10.030;2023-12-20T03:14:26;94695.75;;;6.91
31528;BMP280;10206;48.012;10.030;2023-12-20T03:16:53;94693.38;;;6.95
31528;BMP280;10206;48.012;10.030;2023-12-20T03:19:19;94700.06;;;6.79
31528;BMP280;10206;48.012;10.030;2023-12-20T03:21:45;94705.00;;;7.03
31528;BMP280;10206;48.012;10.030;2023-12-20T03:24:11;94705.69;;;6.96
31528;BMP280;10206;48.012;10.030;2023-12-20T03:26:37;94704.03;;;6.85
31528;BMP280;10206;48.012;10.030;2023-12-20T03:29:04;94705.16;;;6.90
31528;BMP280;10206;48.012;10.030;2023-12-20T03:31:30;94711.09;;;6.81
31528;BMP280;10206;48.012;10.030;2023-12-20T03:33:56;94707.81;;;6.67
31528;BMP280;10206;48.012;10.030;2023-12-20T03:36:22;94698.97;;;6.82
31528;BMP280;10206;48.012;10.030;2023-12-20T03:38:48;94700.59;;;6.85
31528;BMP280;10206;48.012;10.030;2023-12-20T03:41:14;94692.09;;;6.66
31528;BMP280;10206;48.012;10.030;2023-12-20T03:43:40;94692.25;;;6.60
31528;BMP280;10206;48.012;10.030;2023-12-20T03:46:08;94691.88;;;6.49
31528;BMP280;10206;48.012;10.030;2023-12-20T03:48:34;94691.00;;;6.69
31528;BMP280;10206;48.012;10.030;2023-12-20T03:51:00;94698.75;;;6.57
31528;BMP280;10206;48.012;10.030;2023-12-20T03:53:26;94691.56;;;6.75
31528;BMP280;10206;48.012;10.030;2023-12-20T03:55:52;94685.94;;;6.65
31528;BMP280;10206;48.012;10.030;2023-12-20T03:58:19;94691.91;;;6.64
31528;BMP280;10206;48.012;10.030;2023-12-20T04:00:45;94701.16;;;6.83
31528;BMP280;10206;48.012;10.030;2023-12-20T04:03:11;94700.72;;;6.57
31528;BMP280;10206;48.012;10.030;2023-12-20T04:05:40;94705.97;;;6.62
31528;BMP280;10206;48.012;10.030;2023-12-20T04:08:07;94706.25;;;6.36
31528;BMP280;10206;48.012;10.030;2023-12-20T04:10:33;94716.63;;;6.53
31528;BMP280;10206;48.012;10.030;2023-12-20T04:12:59;94713.53;;;6.56
31528;BMP280;10206;48.012;10.030;2023-12-20T04:15:25;94719.69;;;6.57
31528;BMP280;10206;48.012;10.030;2023-12-20T04:17:51;94722.25;;;6.62
31528;BMP280;10206;48.012;10.030;2023-12-20T04:20:17;94722.06;;;6.60
31528;BMP280;10206;48.012;10.030;2023-12-20T04:22:43;94724.88;;;6.40
31528;BMP280;10206;48.012;10.030;2023-12-20T04:25:09;94731.25;;;6.57
31528;BMP280;10206;48.012;10.030;2023-12-20T04:27:35;94733.41;;;6.59
31528;BMP280;10206;48.012;10.030;2023-12-20T04:30:02;94735.00;;;6.47
31528;BMP280;10206;48.012;10.030;2023-12-20T04:32:28;94747.69;;;6.52
31528;BMP280;10206;48.012;10.030;2023-12-20T04:34:54;94741.56;;;6.51
31528;BMP280;10206;48.012;10.030;2023-12-20T04:37:20;94752.25;;;6.28
31528;BMP280;10206;48.012;10.030;2023-12-20T04:39:46;94749.13;;;6.53
31528;BMP280;10206;48.012;10.030;2023-12-20T04:42:12;94762.03;;;6.31
31528;BMP280;10206;48.012;10.030;2023-12-20T04:44:38;94762.03;;;6.31
31528;BMP280;10206;48.012;10.030;2023-12-20T04:47:04;94766.56;;;6.37
31528;BMP280;10206;48.012;10.030;2023-12-20T04:49:30;94774.16;;;6.02
31528;BMP280;10206;48.012;10.030;2023-12-20T04:51:57;94764.75;;;6.31
31528;BMP280;10206;48.012;10.030;2023-12-20T04:54:23;94771.25;;;6.36
31528;BMP280;10206;48.012;10.030;2023-12-20T04:56:49;94771.97;;;6.29
31528;BMP280;10206;48.012;10.030;2023-12-20T04:59:15;94772.38;;;6.41
31528;BMP280;10206;48.012;10.030;2023-12-20T05:01:41;94780.22;;;6.52
31528;BMP280;10206;48.012;10.030;2023-12-20T05:04:07;94784.88;;;6.15
31528;BMP280;10206;48.012;10.030;2023-12-20T05:06:33;94767.63;;;6.33
31528;BMP280;10206;48.012;10.030;2023-12-20T05:08:59;94777.03;;;6.04
31528;BMP280;10206;48.012;10.030;2023-12-20T05:11:25;94772.47;;;6.27
31528;BMP280;10206;48.012;10.030;2023-12-20T05:13:52;94784.28;;;6.38
31528;BMP280;10206;48.012;10.030;2023-12-20T05:16:18;94784.34;;;6.53
31528;BMP280;10206;48.012;10.030;2023-12-20T05:18:44;94781.63;;;6.45
31528;BMP280;10206;48.012;10.030;2023-12-20T05:21:11;94795.47;;;6.06
31528;BMP280;10206;48.012;10.030;2023-12-20T05:23:37;94801.47;;;6.12
31528;BMP280;10206;48.012;10.030;2023-12-20T05:26:03;94802.59;;;6.16
31528;BMP280;10206;48.012;10.030;2023-12-20T05:28:29;94798.50;;;6.02
31528;BMP280;10206;48.012;10.030;2023-12-20T05:30:55;94796.63;;;6.18
31528;BMP280;10206;48.012;10.030;2023-12-20T05:33:21;94802.94;;;6.13
31528;BMP280;10206;48.012;10.030;2023-12-20T05:35:47;94806.34;;;6.13
31528;BMP280;10206;48.012;10.030;2023-12-20T05:38:13;94807.63;;;6.12
31528;BMP280;10206;48.012;10.030;2023-12-20T05:40:40;94810.91;;;6.18
31528;BMP280;10206;48.012;10.030;2023-12-20T05:43:06;94814.75;;;6.30
31528;BMP280;10206;48.012;10.030;2023-12-20T05:45:32;94812.72;;;6.23
31528;BMP280;10206;48.012;10.030;2023-12-20T05:47:58;94818.34;;;6.25
31528;BMP280;10206;48.012;10.030;2023-12-20T05:50:24;94818.63;;;6.14
31528;BMP280;10206;48.012;10.030;2023-12-20T05:52:51;94827.03;;;6.03
31528;BMP280;10206;48.012;10.030;2023-12-20T05:55:17;94831.28;;;5.91
31528;BMP280;10206;48.012;10.030;2023-12-20T05:57:43;94844.13;;;6.19
31528;BMP280;10206;48.012;10.030;2023-12-20T06:00:10;94843.28;;;6.03
31528;BMP280;10206;48.012;10.030;2023-12-20T06:02:36;94850.03;;;6.10
31528;BMP280;10206;48.012;10.030;2023-12-20T06:05:06;94846.09;;;6.18
31528;BMP280;10206;48.012;10.030;2023-12-20T06:07:32;94835.06;;;6.16
31528;BMP280;10206;48.012;10.030;2023-12-20T06:09:58;94840.53;;;5.96
31528;BMP280;10206;48.012;10.030;2023-12-20T06:12:25;94835.06;;;6.16
31528;BMP280;10206;48.012;10.030;2023-12-20T06:14:52;94837.56;;;6.14
31528;BMP280;10206;48.012;10.030;2023-12-20T06:17:18;94842.38;;;6.29
31528;BMP280;10206;48.012;10.030;2023-12-20T06:19:45;94840.97;;;6.07
31528;BMP280;10206;48.012;10.030;2023-12-20T06:22:14;94838.56;;;6.24
31528;BMP280;10206;48.012;10.030;2023-12-20T06:24:40;94836.41;;;6.30
31528;BMP280;10206;48.012;10.030;2023-12-20T06:27:06;94846.06;;;5.90
31528;BMP280;10206;48.012;10.030;2023-12-20T06:29:33;94841.09;;;6.30
31528;BMP280;10206;48.012;10.030;2023-12-20T06:32:00;94836.50;;;6.17
31528;BMP280;10206;48.012;10.030;2023-12-20T06:34:26;94845.34;;;6.46
31528;BMP280;10206;48.012;10.030;2023-12-20T06:36:52;94854.94;;;6.47
31528;BMP280;10206;48.012;10.030;2023-12-20T06:39:18;94850.13;;;6.53
31528;BMP280;10206;48.012;10.030;2023-12-20T06:41:44;94850.13;;;6.53
31528;BMP280;10206;48.012;10.030;2023-12-20T06:44:11;94852.56;;;6.44
31528;BMP280;10206;48.012;10.030;2023-12-20T06:46:37;94847.63;;;6.63
31528;BMP280;10206;48.012;10.030;2023-12-20T06:49:03;94860.06;;;6.58
31528;BMP280;10206;48.012;10.030;2023-12-20T06:51:29;94857.94;;;6.36
31528;BMP280;10206;48.012;10.030;2023-12-20T06:53:56;94863.31;;;6.57
31528;BMP280;10206;48.012;10.030;2023-12-20T06:56:23;94862.13;;;6.37
31528;BMP280;10206;48.012;10.030;2023-12-20T06:58:49;94847.63;;;6.63
31528;BMP280;10206;48.012;10.030;2023-12-20T07:01:16;94857.78;;;6.70
31528;BMP280;10206;48.012;10.030;2023-12-20T07:03:42;94868.56;;;6.62
31528;BMP280;10206;48.012;10.030;2023-12-20T07:06:08;94871.44;;;6.57
31528;BMP280;10206;48.012;10.030;2023-12-20T07:08:35;94879.09;;;6.66
31528;BMP280;10206;48.012;10.030;2023-12-20T07:11:01;94884.69;;;6.40
31528;BMP280;10206;48.012;10.030;2023-12-20T07:13:27;94889.19;;;6.65
31528;BMP280;10206;48.012;10.030;2023-12-20T07:15:53;94884.13;;;6.62
31528;BMP280;10206;48.012;10.030;2023-12-20T07:18:19;94884.69;;;6.68
31528;BMP280;10206;48.012;10.030;2023-12-20T07:20:45;94889.97;;;6.73
31528;BMP280;10206;48.012;10.030;2023-12-20T07:23:11;94893.91;;;6.72
31528;BMP280;10206;48.012;10.030;2023-12-20T07:25:37;94884.22;;;6.84
31528;BMP280;10206;48.012;10.030;2023-12-20T07:28:04;94888.31;;;6.70
31528;BMP280;10206;48.012;10.030;2023-12-20T07:30:30;94891.31;;;6.87
31528;BMP280;10206;48.012;10.030;2023-12-20T07:32:56;94896.00;;;6.87
31528;BMP280;10206;48.012;10.030;2023-12-20T07:35:24;94905.09;;;7.05
31528;BMP280;10206;48.012;10.030;2023-12-20T07:37:51;94906.13;;;6.86
31528;BMP280;10206;48.012;10.030;2023-12-20T07:40:17;94911.09;;;7.11
31528;BMP280;10206;48.012;10.030;2023-12-20T07:42:43;94923.06;;;7.15
31528;BMP280;10206;48.012;10.030;2023-12-20T07:45:09;94923.06;;;7.15
31528;BMP280;10206;48.012;10.030;2023-12-20T07:47:36;94919.78;;;7.09
31528;BMP280;10206;48.012;10.030;2023-12-20T07:50:03;94919.78;;;7.17
31528;BMP280;10206;48.012;10.030;2023-12-20T07:52:29;94923.66;;;6.93
31528;BMP280;10206;48.012;10.030;2023-12-20T07:54:56;94931.50;;;7.04
31528;BMP280;10206;48.012;10.030;2023-12-20T07:57:23;94928.50;;;7.15
31528;BMP280;10206;48.012;10.030;2023-12-20T07:59:49;94932.16;;;7.25
31528;BMP280;10206;48.012;10.030;2023-12-20T08:02:16;94932.16;;;7.25
31528;BMP280;10206;48.012;10.030;2023-12-20T08:04:42;94928.66;;;7.10
31528;BMP280;10206;48.012;10.030;2023-12-20T08:07:08;94927.44;;;7.26
31528;BMP280;10206;48.012;10.030;2023-12-20T08:09:34;94927.44;;;7.26
31528;BMP280;10206;48.012;10.030;2023-12-20T08:12:02;94935.41;;;7.31
31528;BMP280;10206;48.012;10.030;2023-12-20T08:14:28;94945.75;;;7.40
31528;BMP280;10206;48.012;10.030;2023-12-20T08:16:54;94936.63;;;7.15
31528;BMP280;10206;48.012;10.030;2023-12-20T08:19:21;94937.38;;;7.31
31528;BMP280;10206;48.012;10.030;2023-12-20T08:21:47;94937.25;;;7.36
31528;BMP280;10206;48.012;10.030;2023-12-20T08:24:13;94937.25;;;7.36
31528;BMP280;10206;48.012;10.030;2023-12-20T08:26:39;94929.00;;;7.65
31528;BMP280;10206;48.012;10.030;2023-12-20T08:29:05;94929.00;;;7.65
31528;BMP280;10206;48.012;10.030;2023-12-20T08:31:31;94930.97;;;7.56
31528;BMP280;10206;48.012;10.030;2023-12-20T08:33:57;94924.28;;;7.57
31528;BMP280;10206;48.012;10.030;2023-12-20T08:36:23;94923.38;;;7.63
31528;BMP280;10206;48.012;10.030;2023-12-20T08:38:50;94923.38;;;7.63
31528;BMP280;10206;48.012;10.030;2023-12-20T08:41:17;94924.63;;;7.54
31528;BMP280;10206;48.012;10.030;2023-12-20T08:43:43;94922.84;;;7.72
31528;BMP280;10206;48.012;10.030;2023-12-20T08:46:09;94932.66;;;7.75
31528;BMP280;10206;48.012;10.030;2023-12-20T08:48:35;94936.41;;;7.56
31528;BMP280;10206;48.012;10.030;2023-12-20T08:51:02;94929.41;;;7.84
31528;BMP280;10206;48.012;10.030;2023-12-20T08:53:28;94944.25;;;7.83
31528;BMP280;10206;48.012;10.030;2023-12-20T08:55:54;94939.34;;;7.89
31528;BMP280;10206;48.012;10.030;2023-12-20T08:58:20;94939.34;;;7.89
31528;BMP280;10206;48.012;10.030;2023-12-20T09:00:46;94935.56;;;7.84
31528;BMP280;10206;48.012;10.030;2023-12-20T09:03:12;94940.63;;;7.80
31528;BMP280;10206;48.012;10.030;2023-12-20T09:05:38;94939.91;;;7.87
31528;BMP280;10206;48.012;10.030;2023-12-20T09:08:05;94939.91;;;7.87
31528;BMP280;10206;48.012;10.030;2023-12-20T09:10:31;94945.53;;;7.97
31528;BMP280;10206;48.012;10.030;2023-12-20T09:12:57;94939.19;;;7.94
31528;BMP280;10206;48.012;10.030;2023-12-20T09:15:24;94950.78;;;8.02
31528;BMP280;10206;48.012;10.030;2023-12-20T09:17:51;94938.25;;;7.84
31528;BMP280;10206;48.012;10.030;2023-12-20T09:20:17;94944.25;;;7.98
31528;BMP280;10206;48.012;10.030;2023-12-20T09:22:43;94941.53;;;7.98
31528;BMP280;10206;48.012;10.030;2023-12-20T09:25:10;94931.56;;;8.08
31528;BMP280;10206;48.012;10.030;2023-12-20T09:27:37;94927.25;;;8.35
31528;BMP280;10206;48.012;10.030;2023-12-20T09:30:03;94927.06;;;8.33
31528;BMP280;10206;48.012;10.030;2023-12-20T09:32:31;94931.56;;;8.53
31528;BMP280;10206;48.012;10.030;2023-12-20T09:34:57;94925.91;;;8.59
31528;BMP280;10206;48.012;10.030;2023-12-20T09:37:26;94925.59;;;8.40
31528;BMP280;10206;48.012;10.030;2023-12-20T09:39:53;94930.16;;;8.45
31528;BMP280;10206;48.012;10.030;2023-12-20T09:42:24;94932.13;;;8.44
31528;BMP280;10206;48.012;10.030;2023-12-20T09:44:55;94933.72;;;8.62
31528;BMP280;10206;48.012;10.030;2023-12-20T09:47:23;94931.94;;;8.27
31528;BMP280;10206;48.012;10.030;2023-12-20T09:49:51;94933.59;;;8.45
31528;BMP280;10206;48.012;10.030;2023-12-20T09:52:18;94937.19;;;8.40
31528;BMP280;10206;48.012;10.030;2023-12-20T09:54:47;94937.19;;;8.40
31528;BMP280;10206;48.012;10.030;2023-12-20T09:57:14;94931.56;;;8.61
31528;BMP280;10206;48.012;10.030;2023-12-20T09:59:41;94927.16;;;8.80
31528;BMP280;10206;48.012;10.030;2023-12-20T10:02:11;94930.81;;;8.75
31528;BMP280;10206;48.012;10.030;2023-12-20T10:04:42;94923.50;;;8.78
31528;BMP280;10206;48.012;10.030;2023-12-20T10:07:12;94924.78;;;8.92
31528;BMP280;10206;48.012;10.030;2023-12-20T10:09:39;94919.59;;;8.64
31528;BMP280;10206;48.012;10.030;2023-12-20T10:12:05;94917.69;;;8.89
31528;BMP280;10206;48.012;10.030;2023-12-20T10:14:33;94905.78;;;8.69
31528;BMP280;10206;48.012;10.030;2023-12-20T10:17:03;94911.63;;;8.51
31528;BMP280;10206;48.012;10.030;2023-12-20T10:19:30;94904.69;;;8.80
31528;BMP280;10206;48.012;10.030;2023-12-20T10:21:57;94907.56;;;8.89
31528;BMP280;10206;48.012;10.030;2023-12-20T10:24:23;94901.72;;;8.23
31528;BMP280;10206;48.012;10.030;2023-12-20T10:27:02;94904.72;;;8.57
31528;BMP280;10206;48.012;10.030;2023-12-20T10:29:32;94909.28;;;8.40
31528;BMP280;10206;48.012;10.030;2023-12-20T10:31:59;94911.84;;;8.45
31528;BMP280;10206;48.012;10.030;2023-12-20T10:34:25;94898.44;;;8.32
31528;BMP280;10206;48.012;10.030;2023-12-20T10:36:53;94898.88;;;8.68
31528;BMP280;10206;48.012;10.030;2023-12-20T10:39:20;94895.75;;;8.95
31528;BMP280;10206;48.012;10.030;2023-12-20T10:41:47;94905.75;;;8.84
31528;BMP280;10206;48.012;10.030;2023-12-20T10:44:14;94906.97;;;8.99
31528;BMP280;10206;48.012;10.030;2023-12-20T10:46:42;94901.44;;;9.21
31528;BMP280;10206;48.012;10.030;2023-12-20T10:49:17;94903.16;;;9.02
31528;BMP280;10206;48.012;10.030;2023-12-20T10:51:44;94891.00;;;9.03
31528;BMP280;10206;48.012;10.030;2023-12-20T10:54:11;94895.59;;;9.25
31528;BMP280;10206;48.012;10.030;2023-12-20T10:56:38;94886.81;;;9.09
31528;BMP280;10206;48.012;10.030;2023-12-20T10:59:06;94882.03;;;9.17
31528;BMP280;10206;48.012;10.030;2023-12-20T11:01:33;94884.72;;;9.32
31528;BMP280;10206;48.012;10.030;2023-12-20T11:04:01;94885.31;;;9.16
31528;BMP280;10206;48.012;10.030;2023-12-20T11:06:57;94882.13;;;9.42
31528;BMP280;10206;48.012;10.030;2023-12-20T11:09:41;94874.88;;;8.97
31528;BMP280;10206;48.012;10.030;2023-12-20T11:14:54;94868.56;;;9.27
31528;BMP280;10206;48.012;10.030;2023-12-20T11:17:23;94854.81;;;8.85
31528;BMP280;10206;48.012;10.030;2023-12-20T11:22:25;94864.53;;;9.03
31528;BMP280;10206;48.012;10.030;2023-12-20T11:24:53;94865.97;;;9.36
31528;BMP280;10206;48.012;10.030;2023-12-20T11:27:19;94854.25;;;8.86
31528;BMP280;10206;48.012;10.030;2023-12-20T11:29:53;94856.75;;;8.92
31528;BMP280;10206;48.012;10.030;2023-12-20T11:37:38;94858.97;;;8.86
31528;BMP280;10206;48.012;10.030;2023-12-20T11:40:11;94861.47;;;8.91
31528;BMP280;10206;48.012;10.030;2023-12-20T11:42:41;94867.59;;;9.39
31528;BMP280;10206;48.012;10.030;2023-12-20T11:45:28;94859.41;;;9.07
31528;BMP280;10206;48.012;10.030;2023-12-20T11:47:54;94862.47;;;9.43
31528;BMP280;10206;48.012;10.030;2023-12-20T11:50:23;94855.03;;;9.44
31528;BMP280;10206;48.012;10.030;2023-12-20T11:52:51;94860.72;;;9.63
31528;BMP280;10206;48.012;10.030;2023-12-20T11:55:17;94862.38;;;9.26
31528;BMP280;10206;48.012;10.030;2023-12-20T11:57:46;94854.00;;;9.00
31528;BMP280;10206;48.012;10.030;2023-12-20T12:00:14;94857.97;;;9.06
31528;BMP280;10206;48.012;10.030;2023-12-20T12:02:41;94865.06;;;9.02
31528;BMP280;10206;48.012;10.030;2023-12-20T12:05:07;94856.19;;;9.01
31528;BMP280;10206;48.012;10.030;2023-12-20T12:07:36;94870.03;;;9.20
31528;BMP280;10206;48.012;10.030;2023-12-20T12:10:03;94864.66;;;9.13
31528;BMP280;10206;48.012;10.030;2023-12-20T12:12:30;94862.69;;;9.38
31528;BMP280;10206;48.012;10.030;2023-12-20T12:14:56;94862.34;;;9.34
31528;BMP280;10206;48.012;10.030;2023-12-20T12:17:23;94874.00;;;9.27
31528;BMP280;10206;48.012;10.030;2023-12-20T12:19:50;94868.13;;;9.06
31528;BMP280;10206;48.012;10.030;2023-12-20T12:22:16;94867.56;;;8.67
31528;BMP280;10206;48.012;10.030;2023-12-20T12:24:46;94875.81;;;7.92
31528;BMP280;10206;48.012;10.030;2023-12-20T12:27:13;94861.31;;;7.67
31528;BMP280;10206;48.012;10.030;2023-12-20T12:29:40;94856.91;;;7.33
31528;BMP280;10206;48.012;10.030;2023-12-20T12:32:09;94853.31;;;7.46
31528;BMP280;10206;48.012;10.030;2023-12-20T12:34:38;94858.22;;;7.63
31528;BMP280;10206;48.012;10.030;2023-12-20T12:37:05;94857.13;;;7.66
31528;BMP280;10206;48.012;10.030;2023-12-20T12:39:31;94845.00;;;7.44
31528;BMP280;10206;48.012;10.030;2023-12-20T12:41:57;94846.47;;;7.60
31528;BMP280;10206;48.012;10.030;2023-12-20T12:44:23;94851.56;;;7.94
31528;BMP280;10206;48.012;10.030;2023-12-20T12:46:51;94850.47;;;7.97
31528;BMP280;10206;48.012;10.030;2023-12-20T12:49:19;94856.97;;;8.16
31528;BMP280;10206;48.012;10.030;2023-12-20T12:51:45;94852.59;;;8.36
31528;BMP280;10206;48.012;10.030;2023-12-20T12:54:12;94859.47;;;8.45
31528;BMP280;10206;48.012;10.030;2023-12-20T12:56:39;94844.25;;;8.42
31528;BMP280;10206;48.012;10.030;2023-12-20T12:59:05;94848.38;;;8.50
31528;BMP280;10206;48.012;10.030;2023-12-20T13:01:32;94852.19;;;8.40
31528;BMP280;10206;48.012;10.030;2023-12-20T13:03:58;94843.56;;;8.26
31528;BMP280;10206;48.012;10.030;2023-12-20T13:06:24;94840.13;;;8.18
31528;BMP280;10206;48.012;10.030;2023-12-20T13:08:50;94837.69;;;8.52
31528;BMP280;10206;48.012;10.030;2023-12-20T13:11:16;94825.19;;;8.57
31528;BMP280;10206;48.012;10.030;2023-12-20T13:13:42;94826.25;;;8.61
31528;BMP280;10206;48.012;10.030;2023-12-20T13:16:08;94822.53;;;8.81
31528;BMP280;10206;48.012;10.030;2023-12-20T13:18:35;94829.25;;;8.80
31528;BMP280;10206;48.012;10.030;2023-12-20T13:21:01;94833.19;;;8.95
31528;BMP280;10206;48.012;10.030;2023-12-20T13:23:27;94843.81;;;9.08
31528;BMP280;10206;48.012;10.030;2023-12-20T13:25:53;94829.56;;;8.92
31528;BMP280;10206;48.012;10.030;2023-12-20T13:28:20;94831.09;;;8.70
31528;BMP280;10206;48.012;10.030;2023-12-20T13:30:46;94839.63;;;8.67
31528;BMP280;10206;48.012;10.030;2023-12-20T13:33:12;94839.25;;;8.70
31528;BMP280;10206;48.012;10.030;2023-12-20T13:35:38;94840.81;;;8.41
31528;BMP280;10206;48.012;10.030;2023-12-20T13:38:05;94840.25;;;8.43
31528;BMP280;10206;48.012;10.030;2023-12-20T13:40:32;94854.44;;;8.18
31528;BMP280;10206;48.012;10.030;2023-12-20T13:42:58;94849.75;;;7.81
31528;BMP280;10206;48.012;10.030;2023-12-20T13:45:25;94852.09;;;7.70
31528;BMP280;10206;48.012;10.030;2023-12-20T13:47:51;94859.53;;;7.92
31528;BMP280;10206;48.012;10.030;2023-12-20T13:50:17;94855.34;;;8.13
31528;BMP280;10206;48.012;10.030;2023-12-20T13:52:43;94856.59;;;8.20
31528;BMP280;10206;48.012;10.030;2023-12-20T13:55:09;94867.47;;;8.20
31528;BMP280;10206;48.012;10.030;2023-12-20T13:57:36;94864.19;;;8.29
31528;BMP280;10206;48.012;10.030;2023-12-20T14:00:07;94859.69;;;8.24
31528;BMP280;10206;48.012;10.030;2023-12-20T14:02:41;94870.16;;;8.20
31528;BMP280;10206;48.012;10.030;2023-12-20T14:05:07;94875.44;;;8.26
31528;BMP280;10206;48.012;10.030;2023-12-20T14:07:34;94871.06;;;8.30
31528;BMP280;10206;48.012;10.030;2023-12-20T14:10:00;94866.75;;;8.12
31528;BMP280;10206;48.012;10.030;2023-12-20T14:12:26;94867.09;;;8.08
31528;BMP280;10206;48.012;10.030;2023-12-20T14:14:52;94866.41;;;8.15
31528;BMP280;10206;48.012;10.030;2023-12-20T14:17:20;94882.69;;;8.08